sensor_id;sensor_type;location;lat;lon;timestamp;pressure;altitude;pressure_sealevel;temperature;humidity
45793;BME280;31495;42.740;22.908;2023-01-28T00:00:13;92406.59;;;-1.65;80.86
45793;BME280;31495;42.740;22.908;2023-01-28T00:01:15;92402.63;;;-1.59;80.63
45793;BME280;31495;42.740;22.908;2023-01-28T00:02:15;92434.44;;;-1.31;80.41
45793;BME280;31495;42.740;22.908;2023-01-28T00:03:14;92374.22;;;-1.79;80.12
45793;BME280;31495;42.740;22.908;2023-01-28T00:04:14;92435.63;;;-1.51;80.43
45793;BME280;31495;42.740;22.908;2023-01-28T00:05:13;92365.47;;;-1.93;80.74
45793;BME280;31495;42.740;22.908;2023-01-28T00:06:14;92429.66;;;-1.42;81.04
45793;BME280;31495;42.740;22.908;2023-01-28T00:07:13;92414.06;;;-1.55;80.71
45793;BME280;31495;42.740;22.908;2023-01-28T00:08:13;92416.47;;;-1.54;80.88
45793;BME280;31495;42.740;22.908;2023-01-28T00:09:13;92362.78;;;-1.92;80.62
45793;BME280;31495;42.740;22.908;2023-01-28T00:10:12;92432.47;;;-1.53;80.69
45793;BME280;31495;42.740;22.908;2023-01-28T00:11:12;92405.16;;;-1.68;80.62
45793;BME280;31495;42.740;22.908;2023-01-28T00:12:12;92405.47;;;-1.62;80.50
45793;BME280;31495;42.740;22.908;2023-01-28T00:13:13;92430.09;;;-1.46;80.88
45793;BME280;31495;42.740;22.908;2023-01-28T00:14:15;92411.22;;;-1.60;80.90
45793;BME280;31495;42.740;22.908;2023-01-28T00:15:15;92404.81;;;-1.73;80.96
45793;BME280;31495;42.740;22.908;2023-01-28T00:16:15;92441.34;;;-1.57;80.72
45793;BME280;31495;42.740;22.908;2023-01-28T00:17:14;92421.63;;;-1.72;80.59
45793;BME280;31495;42.740;22.908;2023-01-28T00:18:14;92441.50;;;-1.59;80.80
45793;BME280;31495;42.740;22.908;2023-01-28T00:19:13;92389.41;;;-1.79;81.04
45793;BME280;31495;42.740;22.908;2023-01-28T00:20:14;92381.81;;;-1.79;80.91
45793;BME280;31495;42.740;22.908;2023-01-28T00:21:14;92381.66;;;-1.78;80.38
45793;BME280;31495;42.740;22.908;2023-01-28T00:22:14;92435.03;;;-1.45;80.73
45793;BME280;31495;42.740;22.908;2023-01-28T00:23:14;92424.53;;;-1.58;80.20
45793;BME280;31495;42.740;22.908;2023-01-28T00:24:13;92425.13;;;-1.64;80.28
45793;BME280;31495;42.740;22.908;2023-01-28T00:25:14;92433.41;;;-1.54;80.36
45793;BME280;31495;42.740;22.908;2023-01-28T00:26:14;92420.50;;;-1.69;80.63
45793;BME280;31495;42.740;22.908;2023-01-28T00:27:14;92414.78;;;-1.79;80.61
45793;BME280;31495;42.740;22.908;2023-01-28T00:28:13;92444.53;;;-1.55;81.14
45793;BME280;31495;42.740;22.908;2023-01-28T00:29:12;92423.34;;;-1.72;81.02
45793;BME280;31495;42.740;22.908;2023-01-28T00:30:12;92409.56;;;-1.78;80.69
45793;BME280;31495;42.740;22.908;2023-01-28T00:31:17;92288.38;;;-2.60;80.91
45793;BME280;31495;42.740;22.908;2023-01-28T00:32:18;92418.91;;;-1.78;81.27
45793;BME280;31495;42.740;22.908;2023-01-28T00:33:17;92454.34;;;-1.60;81.09
45793;BME280;31495;42.740;22.908;2023-01-28T00:34:16;92401.13;;;-1.87;81.14
45793;BME280;31495;42.740;22.908;2023-01-28T00:35:16;92440.06;;;-1.61;80.69
45793;BME280;31495;42.740;22.908;2023-01-28T00:36:16;92451.81;;;-1.52;80.67
45793;BME280;31495;42.740;22.908;2023-01-28T00:37:16;92441.81;;;-1.62;80.60
45793;BME280;31495;42.740;22.908;2023-01-28T00:38:16;92409.38;;;-1.85;80.52
45793;BME280;31495;42.740;22.908;2023-01-28T00:39:15;92447.16;;;-1.73;80.52
45793;BME280;31495;42.740;22.908;2023-01-28T00:40:15;92407.41;;;-1.99;80.93
45793;BME280;31495;42.740;22.908;2023-01-28T00:41:17;92451.44;;;-1.74;81.67
45793;BME280;31495;42.740;22.908;2023-01-28T00:42:17;92440.00;;;-1.78;81.22
45793;BME280;31495;42.740;22.908;2023-01-28T00:43:16;92400.22;;;-2.12;80.72
45793;BME280;31495;42.740;22.908;2023-01-28T00:44:16;92454.59;;;-1.72;81.22
45793;BME280;31495;42.740;22.908;2023-01-28T00:45:15;92428.19;;;-1.95;81.89
45793;BME280;31495;42.740;22.908;2023-01-28T00:46:15;92434.22;;;-1.96;82.55
45793;BME280;31495;42.740;22.908;2023-01-28T00:47:15;92451.44;;;-1.74;81.42
45793;BME280;31495;42.740;22.908;2023-01-28T00:48:15;92461.88;;;-1.77;81.48
45793;BME280;31495;42.740;22.908;2023-01-28T00:49:14;92407.34;;;-2.15;81.89
45793;BME280;31495;42.740;22.908;2023-01-28T00:50:14;92459.50;;;-1.78;81.56
45793;BME280;31495;42.740;22.908;2023-01-28T00:51:15;92461.69;;;-1.83;81.77
45793;BME280;31495;42.740;22.908;2023-01-28T00:52:21;92403.53;;;-2.19;81.78
45793;BME280;31495;42.740;22.908;2023-01-28T00:53:20;92454.53;;;-1.88;82.19
45793;BME280;31495;42.740;22.908;2023-01-28T00:54:19;92423.13;;;-2.22;82.10
45793;BME280;31495;42.740;22.908;2023-01-28T00:55:20;92411.38;;;-2.31;82.99
45793;BME280;31495;42.740;22.908;2023-01-28T00:56:20;92441.94;;;-2.06;82.21
45793;BME280;31495;42.740;22.908;2023-01-28T00:57:19;92455.25;;;-2.04;82.49
45793;BME280;31495;42.740;22.908;2023-01-28T00:58:19;92439.41;;;-2.06;82.56
45793;BME280;31495;42.740;22.908;2023-01-28T00:59:19;92441.16;;;-1.98;82.25
45793;BME280;31495;42.740;22.908;2023-01-28T01:00:19;92406.22;;;-2.21;81.92
45793;BME280;31495;42.740;22.908;2023-01-28T01:01:25;92435.94;;;-1.97;81.88
45793;BME280;31495;42.740;22.908;2023-01-28T01:02:25;92461.38;;;-1.80;81.69
45793;BME280;31495;42.740;22.908;2023-01-28T01:03:25;92449.81;;;-1.83;81.70
45793;BME280;31495;42.740;22.908;2023-01-28T01:04:25;92443.09;;;-1.92;81.19
45793;BME280;31495;42.740;22.908;2023-01-28T01:05:25;92422.78;;;-2.00;81.42
45793;BME280;31495;42.740;22.908;2023-01-28T01:06:24;92436.59;;;-1.95;81.68
45793;BME280;31495;42.740;22.908;2023-01-28T01:07:28;92414.69;;;-2.04;81.83
45793;BME280;31495;42.740;22.908;2023-01-28T01:08:32;92444.13;;;-1.77;81.20
45793;BME280;31495;42.740;22.908;2023-01-28T01:09:38;92430.75;;;-1.87;81.14
45793;BME280;31495;42.740;22.908;2023-01-28T01:10:38;92467.28;;;-1.72;81.33
45793;BME280;31495;42.740;22.908;2023-01-28T01:11:38;92465.06;;;-1.75;81.70
45793;BME280;31495;42.740;22.908;2023-01-28T01:12:38;92454.38;;;-1.87;81.63
45793;BME280;31495;42.740;22.908;2023-01-28T01:13:38;92453.91;;;-1.90;82.39
45793;BME280;31495;42.740;22.908;2023-01-28T01:14:37;92446.88;;;-1.96;82.68
45793;BME280;31495;42.740;22.908;2023-01-28T01:15:36;92441.03;;;-1.89;82.12
45793;BME280;31495;42.740;22.908;2023-01-28T01:16:36;92464.75;;;-1.72;81.63
45793;BME280;31495;42.740;22.908;2023-01-28T01:17:38;92457.78;;;-1.70;81.46
45793;BME280;31495;42.740;22.908;2023-01-28T01:18:39;92466.31;;;-1.71;80.95
45793;BME280;31495;42.740;22.908;2023-01-28T01:19:41;92447.56;;;-1.86;81.69
45793;BME280;31495;42.740;22.908;2023-01-28T01:20:40;92415.50;;;-1.95;81.82
45793;BME280;31495;42.740;22.908;2023-01-28T01:21:43;92433.94;;;-1.85;81.72
45793;BME280;31495;42.740;22.908;2023-01-28T01:22:48;92440.44;;;-1.82;81.59
45793;BME280;31495;42.740;22.908;2023-01-28T01:23:48;92428.22;;;-1.87;81.47
45793;BME280;31495;42.740;22.908;2023-01-28T01:24:47;92468.59;;;-1.59;81.28
45793;BME280;31495;42.740;22.908;2023-01-28T01:25:47;92432.19;;;-1.85;81.30
45793;BME280;31495;42.740;22.908;2023-01-28T01:26:46;92463.50;;;-1.59;81.12
45793;BME280;31495;42.740;22.908;2023-01-28T01:27:48;92469.69;;;-1.62;81.04
45793;BME280;31495;42.740;22.908;2023-01-28T01:28:50;92447.44;;;-1.76;81.58
45793;BME280;31495;42.740;22.908;2023-01-28T01:29:49;92441.38;;;-1.92;81.43
45793;BME280;31495;42.740;22.908;2023-01-28T01:30:49;92407.94;;;-2.22;81.87
45793;BME280;31495;42.740;22.908;2023-01-28T01:31:48;92473.56;;;-1.84;82.20
45793;BME280;31495;42.740;22.908;2023-01-28T01:32:48;92457.84;;;-1.88;81.89
45793;BME280;31495;42.740;22.908;2023-01-28T01:33:49;92475.31;;;-1.85;81.76
45793;BME280;31495;42.740;22.908;2023-01-28T01:34:49;92480.91;;;-1.73;81.82
45793;BME280;31495;42.740;22.908;2023-01-28T01:35:52;92472.91;;;-1.86;82.10
45793;BME280;31495;42.740;22.908;2023-01-28T01:36:53;92437.03;;;-1.99;82.04
45793;BME280;31495;42.740;22.908;2023-01-28T01:37:52;92449.00;;;-1.83;81.68
45793;BME280;31495;42.740;22.908;2023-01-28T01:38:52;92452.66;;;-1.78;81.63
45793;BME280;31495;42.740;22.908;2023-01-28T01:39:53;92483.63;;;-1.66;81.22
45793;BME280;31495;42.740;22.908;2023-01-28T01:40:59;92482.03;;;-1.75;81.85
45793;BME280;31495;42.740;22.908;2023-01-28T01:41:59;92461.88;;;-1.77;81.64
45793;BME280;31495;42.740;22.908;2023-01-28T01:43:00;92450.88;;;-1.86;81.43
45793;BME280;31495;42.740;22.908;2023-01-28T01:44:02;92408.97;;;-2.06;81.55
45793;BME280;31495;42.740;22.908;2023-01-28T01:45:05;92426.78;;;-1.90;81.44
45793;BME280;31495;42.740;22.908;2023-01-28T01:46:05;92453.34;;;-1.68;81.19
45793;BME280;31495;42.740;22.908;2023-01-28T01:47:05;92437.41;;;-1.86;81.41
45793;BME280;31495;42.740;22.908;2023-01-28T01:48:15;92464.63;;;-1.62;81.44
45793;BME280;31495;42.740;22.908;2023-01-28T01:49:20;92465.91;;;-1.58;80.72
45793;BME280;31495;42.740;22.908;2023-01-28T01:51:23;92436.84;;;-1.72;80.66
45793;BME280;31495;42.740;22.908;2023-01-28T01:52:31;92471.28;;;-1.61;80.55
45793;BME280;31495;42.740;22.908;2023-01-28T01:53:32;92450.72;;;-1.84;81.09
45793;BME280;31495;42.740;22.908;2023-01-28T01:54:36;92448.69;;;-1.80;81.24
45793;BME280;31495;42.740;22.908;2023-01-28T01:55:40;92459.00;;;-1.82;81.42
45793;BME280;31495;42.740;22.908;2023-01-28T01:56:43;92484.56;;;-1.75;81.89
45793;BME280;31495;42.740;22.908;2023-01-28T01:57:48;92457.81;;;-1.96;82.01
45793;BME280;31495;42.740;22.908;2023-01-28T01:58:50;92440.03;;;-2.04;82.22
45793;BME280;31495;42.740;22.908;2023-01-28T01:59:52;92482.50;;;-1.72;81.87
45793;BME280;31495;42.740;22.908;2023-01-28T02:00:52;92476.25;;;-1.86;81.97
45793;BME280;31495;42.740;22.908;2023-01-28T02:01:52;92462.41;;;-1.99;81.96
45793;BME280;31495;42.740;22.908;2023-01-28T02:02:52;92429.50;;;-2.17;81.63
45793;BME280;31495;42.740;22.908;2023-01-28T02:03:58;92453.78;;;-2.07;81.79
45793;BME280;31495;42.740;22.908;2023-01-28T02:05:00;92469.84;;;-1.98;82.00
45793;BME280;31495;42.740;22.908;2023-01-28T02:06:00;92452.22;;;-2.08;82.11
45793;BME280;31495;42.740;22.908;2023-01-28T02:07:00;92463.00;;;-2.06;82.17
45793;BME280;31495;42.740;22.908;2023-01-28T02:08:00;92472.72;;;-1.93;82.29
45793;BME280;31495;42.740;22.908;2023-01-28T02:09:28;92487.53;;;-1.80;82.10
45793;BME280;31495;42.740;22.908;2023-01-28T02:10:29;92463.06;;;-1.89;81.52
45793;BME280;31495;42.740;22.908;2023-01-28T02:11:31;92487.66;;;-1.90;82.02
45793;BME280;31495;42.740;22.908;2023-01-28T02:12:37;92455.38;;;-2.06;82.27
45793;BME280;31495;42.740;22.908;2023-01-28T02:13:41;92472.72;;;-1.93;81.87
45793;BME280;31495;42.740;22.908;2023-01-28T02:14:46;92431.13;;;-2.16;82.00
45793;BME280;31495;42.740;22.908;2023-01-28T02:15:47;92470.72;;;-1.81;81.71
45793;BME280;31495;42.740;22.908;2023-01-28T02:16:47;92496.75;;;-1.71;81.83
45793;BME280;31495;42.740;22.908;2023-01-28T02:17:47;92496.31;;;-1.66;81.53
45793;BME280;31495;42.740;22.908;2023-01-28T02:18:47;92461.28;;;-1.97;81.71
45793;BME280;31495;42.740;22.908;2023-01-28T02:20:11;92500.25;;;-1.72;81.59
45793;BME280;31495;42.740;22.908;2023-01-28T02:30:20;92466.16;;;-2.04;82.63
45793;BME280;31495;42.740;22.908;2023-01-28T02:32:05;92485.31;;;-1.83;82.38
45793;BME280;31495;42.740;22.908;2023-01-28T02:33:17;92463.53;;;-1.94;82.01
45793;BME280;31495;42.740;22.908;2023-01-28T02:34:44;92472.25;;;-1.96;81.55
45793;BME280;31495;42.740;22.908;2023-01-28T02:35:52;92446.50;;;-2.10;81.89
45793;BME280;31495;42.740;22.908;2023-01-28T02:36:53;92500.06;;;-1.78;81.73
45793;BME280;31495;42.740;22.908;2023-01-28T02:38:32;92494.91;;;-1.95;81.96
45793;BME280;31495;42.740;22.908;2023-01-28T02:39:39;92434.78;;;-2.11;82.17
45793;BME280;31495;42.740;22.908;2023-01-28T02:40:47;92492.78;;;-1.73;82.57
45793;BME280;31495;42.740;22.908;2023-01-28T02:42:05;92461.28;;;-1.97;81.81
45793;BME280;31495;42.740;22.908;2023-01-28T02:43:06;92459.72;;;-1.98;82.00
45793;BME280;31495;42.740;22.908;2023-01-28T02:44:05;92498.81;;;-1.74;81.86
45793;BME280;31495;42.740;22.908;2023-01-28T02:45:17;92497.41;;;-1.69;82.05
45793;BME280;31495;42.740;22.908;2023-01-28T02:47:42;92480.38;;;-1.85;81.35
45793;BME280;31495;42.740;22.908;2023-01-28T02:48:57;92480.06;;;-1.81;81.09
45793;BME280;31495;42.740;22.908;2023-01-28T02:50:09;92483.00;;;-1.68;80.91
45793;BME280;31495;42.740;22.908;2023-01-28T02:51:21;92496.53;;;-1.51;81.16
45793;BME280;31495;42.740;22.908;2023-01-28T02:54:22;92497.81;;;-1.47;80.51
45793;BME280;31495;42.740;22.908;2023-01-28T02:55:36;92498.13;;;-1.50;79.93
45793;BME280;31495;42.740;22.908;2023-01-28T02:56:54;92420.06;;;-2.07;79.82
45793;BME280;31495;42.740;22.908;2023-01-28T02:59:35;92478.97;;;-1.79;80.39
45793;BME280;31495;42.740;22.908;2023-01-28T03:00:43;92500.91;;;-1.70;80.53
45793;BME280;31495;42.740;22.908;2023-01-28T03:01:47;92446.22;;;-1.98;80.89
45793;BME280;31495;42.740;22.908;2023-01-28T03:03:14;92489.81;;;-1.69;81.23
45793;BME280;31495;42.740;22.908;2023-01-28T03:04:22;92498.09;;;-1.58;80.63
45793;BME280;31495;42.740;22.908;2023-01-28T03:05:37;92479.34;;;-1.74;80.23
45793;BME280;31495;42.740;22.908;2023-01-28T03:06:44;92399.22;;;-2.27;80.56
45793;BME280;31495;42.740;22.908;2023-01-28T03:07:47;92494.78;;;-1.59;80.54
45793;BME280;31495;42.740;22.908;2023-01-28T03:08:53;92501.25;;;-1.56;80.40
45793;BME280;31495;42.740;22.908;2023-01-28T03:10:16;92485.09;;;-1.55;80.59
45793;BME280;31495;42.740;22.908;2023-01-28T03:11:18;92484.44;;;-1.65;80.15
45793;BME280;31495;42.740;22.908;2023-01-28T03:12:38;92484.59;;;-1.67;80.42
45793;BME280;31495;42.740;22.908;2023-01-28T03:13:59;92498.72;;;-1.56;80.71
45793;BME280;31495;42.740;22.908;2023-01-28T03:15:32;92496.53;;;-1.51;80.43
45793;BME280;31495;42.740;22.908;2023-01-28T03:16:52;92499.66;;;-1.65;80.07
45793;BME280;31495;42.740;22.908;2023-01-28T03:19:32;92497.75;;;-1.63;79.36
45793;BME280;31495;42.740;22.908;2023-01-28T03:22:16;92497.78;;;-1.55;79.93
45793;BME280;31495;42.740;22.908;2023-01-28T03:23:47;92504.44;;;-1.54;80.01
45793;BME280;31495;42.740;22.908;2023-01-28T03:25:10;92503.94;;;-1.58;79.68
45793;BME280;31495;42.740;22.908;2023-01-28T03:26:30;92512.88;;;-1.54;79.36
45793;BME280;31495;42.740;22.908;2023-01-28T03:27:55;92517.94;;;-1.54;79.60
45793;BME280;31495;42.740;22.908;2023-01-28T03:29:19;92483.41;;;-1.81;80.11
45793;BME280;31495;42.740;22.908;2023-01-28T03:30:46;92511.06;;;-1.61;80.52
45793;BME280;31495;42.740;22.908;2023-01-28T03:32:06;92519.44;;;-1.69;80.27
45793;BME280;31495;42.740;22.908;2023-01-28T03:33:25;92495.59;;;-1.85;80.53
45793;BME280;31495;42.740;22.908;2023-01-28T03:34:44;92490.03;;;-1.88;80.71
45793;BME280;31495;42.740;22.908;2023-01-28T03:36:05;92501.41;;;-1.92;80.58
45793;BME280;31495;42.740;22.908;2023-01-28T03:37:24;92461.34;;;-2.15;80.56
45793;BME280;31495;42.740;22.908;2023-01-28T03:38:25;92513.72;;;-1.71;80.65
45793;BME280;31495;42.740;22.908;2023-01-28T03:39:40;92491.06;;;-1.99;81.14
45793;BME280;31495;42.740;22.908;2023-01-28T03:40:51;92397.84;;;-2.66;80.88
45793;BME280;31495;42.740;22.908;2023-01-28T03:42:11;92518.97;;;-1.99;81.40
45793;BME280;31495;42.740;22.908;2023-01-28T03:43:11;92519.59;;;-1.97;82.03
45793;BME280;31495;42.740;22.908;2023-01-28T03:44:11;92489.94;;;-2.05;81.85
45793;BME280;31495;42.740;22.908;2023-01-28T03:45:29;92491.84;;;-1.98;82.04
45793;BME280;31495;42.740;22.908;2023-01-28T03:46:28;92510.50;;;-1.81;81.74
45793;BME280;31495;42.740;22.908;2023-01-28T03:47:29;92508.28;;;-1.85;81.77
45793;BME280;31495;42.740;22.908;2023-01-28T03:48:29;92450.66;;;-2.27;81.19
45793;BME280;31495;42.740;22.908;2023-01-28T03:49:28;92504.13;;;-1.86;81.25
45793;BME280;31495;42.740;22.908;2023-01-28T03:50:28;92476.06;;;-2.18;81.70
45793;BME280;31495;42.740;22.908;2023-01-28T03:51:27;92521.19;;;-1.96;81.46
45793;BME280;31495;42.740;22.908;2023-01-28T03:52:29;92485.25;;;-2.17;81.62
45793;BME280;31495;42.740;22.908;2023-01-28T03:53:28;92511.84;;;-1.95;81.84
45793;BME280;31495;42.740;22.908;2023-01-28T03:54:28;92493.25;;;-2.04;81.96
45793;BME280;31495;42.740;22.908;2023-01-28T03:55:27;92478.69;;;-2.02;81.81
45793;BME280;31495;42.740;22.908;2023-01-28T03:56:27;92485.69;;;-1.96;81.72
45793;BME280;31495;42.740;22.908;2023-01-28T03:57:30;92489.41;;;-1.90;81.70
45793;BME280;31495;42.740;22.908;2023-01-28T03:58:30;92480.03;;;-1.90;81.69
45793;BME280;31495;42.740;22.908;2023-01-28T03:59:59;92482.91;;;-1.85;81.04
45793;BME280;31495;42.740;22.908;2023-01-28T04:00:59;92472.13;;;-1.87;80.93
45793;BME280;31495;42.740;22.908;2023-01-28T04:01:58;92525.81;;;-1.65;80.38
45793;BME280;31495;42.740;22.908;2023-01-28T04:02:58;92506.38;;;-1.82;80.44
45793;BME280;31495;42.740;22.908;2023-01-28T04:03:57;92498.13;;;-1.85;80.57
45793;BME280;31495;42.740;22.908;2023-01-28T04:04:57;92505.44;;;-1.81;80.55
45793;BME280;31495;42.740;22.908;2023-01-28T04:06:03;92497.34;;;-1.85;80.18
45793;BME280;31495;42.740;22.908;2023-01-28T04:07:04;92521.38;;;-1.63;80.06
45793;BME280;31495;42.740;22.908;2023-01-28T04:08:04;92524.56;;;-1.61;80.19
45793;BME280;31495;42.740;22.908;2023-01-28T04:09:03;92500.69;;;-1.76;80.23
45793;BME280;31495;42.740;22.908;2023-01-28T04:10:05;92525.31;;;-1.69;80.53
45793;BME280;31495;42.740;22.908;2023-01-28T04:11:06;92497.97;;;-1.83;80.42
45793;BME280;31495;42.740;22.908;2023-01-28T04:12:17;92525.97;;;-1.67;80.57
45793;BME280;31495;42.740;22.908;2023-01-28T04:13:17;92497.28;;;-1.93;80.33
45793;BME280;31495;42.740;22.908;2023-01-28T04:14:17;92530.53;;;-1.70;80.38
45793;BME280;31495;42.740;22.908;2023-01-28T04:15:16;92527.63;;;-1.83;80.32
45793;BME280;31495;42.740;22.908;2023-01-28T04:16:17;92483.38;;;-2.15;80.58
45793;BME280;31495;42.740;22.908;2023-01-28T04:17:17;92486.69;;;-2.15;80.11
45793;BME280;31495;42.740;22.908;2023-01-28T04:18:16;92508.31;;;-2.03;80.10
45793;BME280;31495;42.740;22.908;2023-01-28T04:19:18;92511.84;;;-1.95;80.77
45793;BME280;31495;42.740;22.908;2023-01-28T04:20:17;92509.94;;;-2.01;80.37
45793;BME280;31495;42.740;22.908;2023-01-28T04:21:17;92518.16;;;-1.99;80.87
45793;BME280;31495;42.740;22.908;2023-01-28T04:22:16;92479.66;;;-2.29;80.45
45793;BME280;31495;42.740;22.908;2023-01-28T04:23:15;92531.00;;;-2.01;80.41
45793;BME280;31495;42.740;22.908;2023-01-28T04:24:15;92538.91;;;-2.04;80.93
45793;BME280;31495;42.740;22.908;2023-01-28T04:25:15;92493.69;;;-2.35;81.01
45793;BME280;31495;42.740;22.908;2023-01-28T04:26:14;92509.63;;;-2.25;81.20
45793;BME280;31495;42.740;22.908;2023-01-28T04:27:14;92537.16;;;-2.04;81.15
45793;BME280;31495;42.740;22.908;2023-01-28T04:28:13;92539.81;;;-2.05;81.51
45793;BME280;31495;42.740;22.908;2023-01-28T04:29:13;92513.28;;;-2.19;81.43
45793;BME280;31495;42.740;22.908;2023-01-28T04:30:12;92493.41;;;-2.32;81.74
45793;BME280;31495;42.740;22.908;2023-01-28T04:31:11;92508.72;;;-2.15;81.64
45793;BME280;31495;42.740;22.908;2023-01-28T04:32:11;92516.97;;;-2.13;81.35
45793;BME280;31495;42.740;22.908;2023-01-28T04:33:10;92523.94;;;-2.15;81.50
45793;BME280;31495;42.740;22.908;2023-01-28T04:34:10;92536.00;;;-2.09;81.25
45793;BME280;31495;42.740;22.908;2023-01-28T04:35:09;92544.25;;;-2.07;81.41
45793;BME280;31495;42.740;22.908;2023-01-28T04:36:09;92501.28;;;-2.35;81.27
45793;BME280;31495;42.740;22.908;2023-01-28T04:37:08;92549.38;;;-1.99;81.45
45793;BME280;31495;42.740;22.908;2023-01-28T04:38:08;92549.88;;;-1.95;81.11
45793;BME280;31495;42.740;22.908;2023-01-28T04:39:07;92557.78;;;-1.98;80.93
45793;BME280;31495;42.740;22.908;2023-01-28T04:40:08;92515.28;;;-2.31;81.04
45793;BME280;31495;42.740;22.908;2023-01-28T04:41:07;92558.81;;;-2.09;81.22
45793;BME280;31495;42.740;22.908;2023-01-28T04:42:07;92496.75;;;-2.49;81.32
45793;BME280;31495;42.740;22.908;2023-01-28T04:43:06;92534.78;;;-2.23;81.06
45793;BME280;31495;42.740;22.908;2023-01-28T04:44:05;92518.53;;;-2.38;81.41
45793;BME280;31495;42.740;22.908;2023-01-28T04:45:05;92547.38;;;-2.13;81.57
45793;BME280;31495;42.740;22.908;2023-01-28T04:46:05;92511.56;;;-2.36;81.60
45793;BME280;31495;42.740;22.908;2023-01-28T04:47:05;92548.69;;;-2.09;81.66
45793;BME280;31495;42.740;22.908;2023-01-28T04:48:04;92548.03;;;-2.11;81.48
45793;BME280;31495;42.740;22.908;2023-01-28T04:49:04;92554.41;;;-2.07;81.41
45793;BME280;31495;42.740;22.908;2023-01-28T04:50:04;92554.31;;;-1.97;81.04
45793;BME280;31495;42.740;22.908;2023-01-28T04:51:03;92575.47;;;-1.80;80.64
45793;BME280;31495;42.740;22.908;2023-01-28T04:52:03;92542.00;;;-2.10;80.74
45793;BME280;31495;42.740;22.908;2023-01-28T04:53:02;92546.38;;;-2.20;80.46
45793;BME280;31495;42.740;22.908;2023-01-28T04:54:02;92536.19;;;-2.29;80.57
45793;BME280;31495;42.740;22.908;2023-01-28T04:55:02;92548.28;;;-2.23;81.16
45793;BME280;31495;42.740;22.908;2023-01-28T04:56:02;92539.31;;;-2.35;81.07
45793;BME280;31495;42.740;22.908;2023-01-28T04:57:01;92558.84;;;-2.27;81.43
45793;BME280;31495;42.740;22.908;2023-01-28T04:58:00;92545.97;;;-2.34;81.45
45793;BME280;31495;42.740;22.908;2023-01-28T04:59:00;92542.34;;;-2.31;81.36
45793;BME280;31495;42.740;22.908;2023-01-28T05:00:03;92546.47;;;-2.30;81.49
45793;BME280;31495;42.740;22.908;2023-01-28T05:01:04;92563.84;;;-2.17;81.80
45793;BME280;31495;42.740;22.908;2023-01-28T05:02:03;92543.00;;;-2.29;81.49
45793;BME280;31495;42.740;22.908;2023-01-28T05:03:03;92578.97;;;-2.08;81.13
45793;BME280;31495;42.740;22.908;2023-01-28T05:04:03;92540.03;;;-2.25;80.73
45793;BME280;31495;42.740;22.908;2023-01-28T05:05:04;92553.56;;;-2.16;80.71
45793;BME280;31495;42.740;22.908;2023-01-28T05:06:07;92565.31;;;-2.07;80.96
45793;BME280;31495;42.740;22.908;2023-01-28T05:07:07;92529.50;;;-2.30;80.93
45793;BME280;31495;42.740;22.908;2023-01-28T05:08:07;92578.44;;;-1.93;80.90
45793;BME280;31495;42.740;22.908;2023-01-28T05:09:07;92533.22;;;-2.24;80.60
45793;BME280;31495;42.740;22.908;2023-01-28T05:10:07;92541.75;;;-2.25;80.53
45793;BME280;31495;42.740;22.908;2023-01-28T05:11:07;92575.41;;;-2.15;80.25
45793;BME280;31495;42.740;22.908;2023-01-28T05:12:06;92532.97;;;-2.57;80.82
45793;BME280;31495;42.740;22.908;2023-01-28T05:13:05;92551.69;;;-2.50;81.16
45793;BME280;31495;42.740;22.908;2023-01-28T05:14:05;92562.31;;;-2.46;81.60
45793;BME280;31495;42.740;22.908;2023-01-28T05:15:05;92558.38;;;-2.49;81.78
45793;BME280;31495;42.740;22.908;2023-01-28T05:16:05;92565.47;;;-2.34;81.29
45793;BME280;31495;42.740;22.908;2023-01-28T05:17:05;92560.38;;;-2.34;81.31
45793;BME280;31495;42.740;22.908;2023-01-28T05:18:04;92568.06;;;-2.26;81.00
45793;BME280;31495;42.740;22.908;2023-01-28T05:19:04;92585.25;;;-2.12;81.00
45793;BME280;31495;42.740;22.908;2023-01-28T05:20:05;92569.47;;;-2.24;80.86
45793;BME280;31495;42.740;22.908;2023-01-28T05:21:04;92584.59;;;-2.14;80.69
45793;BME280;31495;42.740;22.908;2023-01-28T05:22:04;92577.00;;;-2.14;80.41
45793;BME280;31495;42.740;22.908;2023-01-28T05:23:03;92601.53;;;-1.96;80.55
45793;BME280;31495;42.740;22.908;2023-01-28T05:24:03;92579.94;;;-2.00;80.42
45793;BME280;31495;42.740;22.908;2023-01-28T05:25:03;92593.94;;;-1.96;80.63
45793;BME280;31495;42.740;22.908;2023-01-28T05:26:03;92578.53;;;-2.03;80.64
45793;BME280;31495;42.740;22.908;2023-01-28T05:27:03;92594.44;;;-1.93;80.84
45793;BME280;31495;42.740;22.908;2023-01-28T05:28:02;92577.41;;;-2.00;80.65
45793;BME280;31495;42.740;22.908;2023-01-28T05:29:02;92581.25;;;-1.96;80.41
45793;BME280;31495;42.740;22.908;2023-01-28T05:30:03;92553.34;;;-2.23;80.26
45793;BME280;31495;42.740;22.908;2023-01-28T05:31:05;92574.75;;;-2.17;80.30
45793;BME280;31495;42.740;22.908;2023-01-28T05:32:05;92568.28;;;-2.37;80.66
45793;BME280;31495;42.740;22.908;2023-01-28T05:33:04;92592.00;;;-2.20;81.11
45793;BME280;31495;42.740;22.908;2023-01-28T05:34:04;92580.47;;;-2.33;81.30
45793;BME280;31495;42.740;22.908;2023-01-28T05:35:03;92580.06;;;-2.28;81.26
45793;BME280;31495;42.740;22.908;2023-01-28T05:36:04;92583.41;;;-2.28;81.33
45793;BME280;31495;42.740;22.908;2023-01-28T05:37:03;92590.41;;;-2.22;81.34
45793;BME280;31495;42.740;22.908;2023-01-28T05:38:04;92604.69;;;-2.20;81.20
45793;BME280;31495;42.740;22.908;2023-01-28T05:39:03;92594.63;;;-2.30;81.52
45793;BME280;31495;42.740;22.908;2023-01-28T05:40:05;92590.25;;;-2.38;81.33
45793;BME280;31495;42.740;22.908;2023-01-28T05:41:04;92592.94;;;-2.40;81.71
45793;BME280;31495;42.740;22.908;2023-01-28T05:42:04;92612.22;;;-2.29;82.11
45793;BME280;31495;42.740;22.908;2023-01-28T05:43:03;92608.13;;;-2.40;82.25
45793;BME280;31495;42.740;22.908;2023-01-28T05:44:03;92613.06;;;-2.38;83.12
45793;BME280;31495;42.740;22.908;2023-01-28T05:45:02;92567.31;;;-2.72;83.15
45793;BME280;31495;42.740;22.908;2023-01-28T05:46:02;92592.66;;;-2.54;83.08
45793;BME280;31495;42.740;22.908;2023-01-28T05:47:01;92587.16;;;-2.50;83.08
45793;BME280;31495;42.740;22.908;2023-01-28T05:48:01;92598.69;;;-2.37;82.69